Time,TemperatureF,DewpointF,PressureIn,WindDirection,WindDirectionDegrees,WindSpeedMPH,WindSpeedGustMPH,Humidity,HourlyPrecipIn,Conditions,Clouds,dailyrainin,SolarRadiationWatts/m^2,SoftwareType,DateUTC
2013-03-04 00:12:00,64.3,27.0,29.93,NNW,332,1.0,3.0,24,0.00,,,0.00,0,weatherlink.com 1.10,2013-03-04 07:12:00,
2013-03-04 00:27:00,64.0,27.0,29.92,NNW,340,1.0,4.0,25,0.00,,,0.00,0,weatherlink.com 1.10,2013-03-04 07:27:00,
2013-03-04 00:42:00,63.4,28.0,29.93,WSW,254,1.0,4.0,26,0.00,,,0.00,0,weatherlink.com 1.10,2013-03-04 07:42:00,
2013-03-04 00:59:00,62.3,29.0,29.92,WSW,254,0.0,2.0,28,0.00,,,0.00,0,weatherlink.com 1.10,2013-03-04 07:59:00,
2013-03-04 01:12:00,61.6,29.0,29.91,WSW,254,0.0,1.0,29,0.00,,,0.00,0,weatherlink.com 1.10,2013-03-04 08:12:00,
2013-03-04 01:27:00,60.9,31.0,29.91,SSE,166,0.0,4.0,32,0.00,,,0.00,0,weatherlink.com 1.10,2013-03-04 08:27:00,
2013-03-04 01:42:00,60.8,30.0,29.91,SSE,166,0.0,1.0,31,0.00,,,0.00,0,weatherlink.com 1.10,2013-03-04 08:42:00,
2013-03-04 01:57:00,62.2,31.0,29.91,South,169,0.0,4.0,31,0.00,,,0.00,0,weatherlink.com 1.10,2013-03-04 08:57:00,
2013-03-04 02:12:00,60.8,33.0,29.91,South,169,1.0,2.0,35,0.00,,,0.00,0,weatherlink.com 1.10,2013-03-04 09:12:00,
2013-03-04 02:27:00,60.2,32.0,29.90,ESE,109,2.0,3.0,35,0.00,,,0.00,0,weatherlink.com 1.10,2013-03-04 09:27:00,
2013-03-04 02:42:00,59.8,33.0,29.90,ESE,109,1.0,3.0,36,0.00,,,0.00,0,weatherlink.com 1.10,2013-03-04 09:42:00,
2013-03-04 02:57:00,59.4,32.0,29.89,East,81,2.0,4.0,36,0.00,,,0.00,0,weatherlink.com 1.10,2013-03-04 09:57:00,
2013-03-04 03:12:00,59.7,32.0,29.89,ENE,57,2.0,4.0,35,0.00,,,0.00,0,weatherlink.com 1.10,2013-03-04 10:12:00,
2013-03-04 03:27:00,59.2,32.0,29.88,ESE,115,1.0,3.0,36,0.00,,,0.00,0,weatherlink.com 1.10,2013-03-04 10:27:00,
2013-03-04 03:42:00,59.0,33.0,29.88,ESE,108,1.0,3.0,37,0.00,,,0.00,0,weatherlink.com 1.10,2013-03-04 10:42:00,
2013-03-04 03:57:00,59.8,31.0,29.88,NE,54,1.0,5.0,34,0.00,,,0.00,0,weatherlink.com 1.10,2013-03-04 10:57:00,
2013-03-04 04:12:00,60.5,31.0,29.87,ENE,63,0.0,2.0,33,0.00,,,0.00,0,weatherlink.com 1.10,2013-03-04 11:12:00,
2013-03-04 04:27:00,61.1,28.0,29.87,ENE,60,2.0,4.0,29,0.00,,,0.00,0,weatherlink.com 1.10,2013-03-04 11:27:00,
2013-03-04 04:42:00,62.1,28.0,29.88,NNW,347,0.0,4.0,27,0.00,,,0.00,0,weatherlink.com 1.10,2013-03-04 11:42:00,
2013-03-04 04:57:00,61.1,30.0,29.87,NNW,347,0.0,3.0,31,0.00,,,0.00,0,weatherlink.com 1.10,2013-03-04 11:57:00,
2013-03-04 05:13:00,60.5,29.0,29.88,NNW,347,0.0,3.0,30,0.00,,,0.00,0,weatherlink.com 1.10,2013-03-04 12:13:00,
2013-03-04 05:27:00,58.7,32.0,29.88,West,277,0.0,2.0,36,0.00,,,0.00,0,weatherlink.com 1.10,2013-03-04 12:27:00,
2013-03-04 05:42:00,57.4,32.0,29.88,SSE,157,1.0,2.0,38,0.00,,,0.00,0,weatherlink.com 1.10,2013-03-04 12:42:00,
2013-03-04 05:57:00,57.9,30.0,29.88,ESE,106,1.0,3.0,35,0.00,,,0.00,0,weatherlink.com 1.10,2013-03-04 12:57:00,
2013-03-04 06:12:00,57.0,32.0,29.88,ESE,106,0.0,1.0,39,0.00,,,0.00,0,weatherlink.com 1.10,2013-03-04 13:12:00,
2013-03-04 06:27:00,55.9,32.0,29.88,ESE,103,1.0,2.0,41,0.00,,,0.00,0,weatherlink.com 1.10,2013-03-04 13:27:00,
2013-03-04 06:42:00,56.0,31.0,29.89,WNW,297,1.0,3.0,39,0.00,,,0.00,0,weatherlink.com 1.10,2013-03-04 13:42:00,
2013-03-04 06:57:00,55.7,32.0,29.89,North,5,1.0,2.0,40,0.00,,,0.00,11,weatherlink.com 1.10,2013-03-04 13:57:00,
2013-03-04 07:12:00,55.9,32.0,29.89,NW,307,0.0,4.0,41,0.00,,,0.00,32,weatherlink.com 1.10,2013-03-04 14:12:00,
2013-03-04 07:28:00,55.9,33.0,29.90,NW,307,1.0,2.0,43,0.00,,,0.00,49,weatherlink.com 1.10,2013-03-04 14:28:00,
2013-03-04 07:44:00,59.0,30.0,29.91,WSW,252,1.0,5.0,34,0.00,,,0.00,158,weatherlink.com 1.10,2013-03-04 14:44:00,
2013-03-04 07:58:00,62.0,27.0,29.91,WNW,287,4.0,5.0,27,0.00,,,0.00,192,weatherlink.com 1.10,2013-03-04 14:58:00,
2013-03-04 08:13:00,64.5,24.0,29.91,WNW,292,6.0,9.0,21,0.00,,,0.00,223,weatherlink.com 1.10,2013-03-04 15:13:00,
2013-03-04 08:28:00,65.9,21.0,29.91,WNW,282,12.0,17.0,18,0.00,,,0.00,306,weatherlink.com 1.10,2013-03-04 15:28:00,
2013-03-04 08:43:00,66.4,20.0,29.92,West,261,10.0,19.0,17,0.00,,,0.00,353,weatherlink.com 1.10,2013-03-04 15:43:00,
2013-03-04 08:58:00,66.8,22.0,29.92,West,277,10.0,15.0,18,0.00,,,0.00,415,weatherlink.com 1.10,2013-03-04 15:58:00,
2013-03-04 09:13:00,66.9,23.0,29.92,West,266,11.0,18.0,19,0.00,,,0.00,450,weatherlink.com 1.10,2013-03-04 16:13:00,
2013-03-04 09:28:00,67.7,24.0,29.92,WSW,248,9.0,15.0,19,0.00,,,0.00,475,weatherlink.com 1.10,2013-03-04 16:28:00,
2013-03-04 09:43:00,68.7,25.0,29.92,West,265,12.0,15.0,19,0.00,,,0.00,538,weatherlink.com 1.10,2013-03-04 16:43:00,
2013-03-04 09:58:00,68.2,31.0,29.93,West,280,7.0,15.0,25,0.00,,,0.00,585,weatherlink.com 1.10,2013-03-04 16:58:00,
2013-03-04 10:13:00,69.0,32.0,29.93,WSW,258,13.0,14.0,25,0.00,,,0.00,624,weatherlink.com 1.10,2013-03-04 17:13:00,
2013-03-04 10:28:00,69.5,32.0,29.92,WNW,285,10.0,13.0,25,0.00,,,0.00,647,weatherlink.com 1.10,2013-03-04 17:28:00,
2013-03-04 10:43:00,70.1,33.0,29.92,WNW,291,5.0,19.0,25,0.00,,,0.00,687,weatherlink.com 1.10,2013-03-04 17:43:00,
2013-03-04 10:58:00,70.5,32.0,29.92,NW,324,6.0,14.0,24,0.00,,,0.00,717,weatherlink.com 1.10,2013-03-04 17:58:00,
2013-03-04 11:13:00,71.4,32.0,29.92,West,273,10.0,19.0,23,0.00,,,0.00,729,weatherlink.com 1.10,2013-03-04 18:13:00,
2013-03-04 11:28:00,72.3,32.0,29.92,WNW,286,8.0,16.0,23,0.00,,,0.00,728,weatherlink.com 1.10,2013-03-04 18:28:00,
2013-03-04 11:43:00,71.6,32.0,29.92,WNW,298,16.0,19.0,23,0.00,,,0.00,765,weatherlink.com 1.10,2013-03-04 18:43:00,
2013-03-04 11:58:00,72.0,31.0,29.92,WNW,289,10.0,20.0,22,0.00,,,0.00,803,weatherlink.com 1.10,2013-03-04 18:58:00,
2013-03-04 12:13:00,72.4,31.0,29.91,WSW,257,11.0,22.0,22,0.00,,,0.00,809,weatherlink.com 1.10,2013-03-04 19:13:00,
2013-03-04 12:28:00,72.0,32.0,29.91,West,265,13.0,20.0,23,0.00,,,0.00,816,weatherlink.com 1.10,2013-03-04 19:28:00,
2013-03-04 12:43:00,72.3,32.0,29.91,West,260,12.0,18.0,23,0.00,,,0.00,819,weatherlink.com 1.10,2013-03-04 19:43:00,
2013-03-04 12:58:00,72.0,32.0,29.90,WNW,302,13.0,19.0,23,0.00,,,0.00,814,weatherlink.com 1.10,2013-03-04 19:58:00,
2013-03-04 13:13:00,72.4,32.0,29.90,North,355,6.0,18.0,23,0.00,,,0.00,805,weatherlink.com 1.10,2013-03-04 20:13:00,
2013-03-04 13:28:00,73.1,33.0,29.90,West,270,12.0,20.0,23,0.00,,,0.00,791,weatherlink.com 1.10,2013-03-04 20:28:00,
2013-03-04 13:43:00,72.9,33.0,29.89,West,263,8.0,18.0,23,0.00,,,0.00,773,weatherlink.com 1.10,2013-03-04 20:43:00,
2013-03-04 13:58:00,72.9,32.0,29.89,WSW,255,12.0,23.0,22,0.00,,,0.00,772,weatherlink.com 1.10,2013-03-04 20:58:00,
2013-03-04 14:13:00,73.0,32.0,29.89,WNW,287,9.0,19.0,22,0.00,,,0.00,735,weatherlink.com 1.10,2013-03-04 21:13:00,
2013-03-04 14:28:00,72.3,31.0,29.89,WNW,283,11.0,24.0,22,0.00,,,0.00,708,weatherlink.com 1.10,2013-03-04 21:28:00,
2013-03-04 14:43:00,72.8,31.0,29.89,West,272,7.0,20.0,21,0.00,,,0.00,677,weatherlink.com 1.10,2013-03-04 21:43:00,
2013-03-04 14:59:00,72.5,30.0,29.90,WNW,302,9.0,24.0,21,0.00,,,0.00,649,weatherlink.com 1.10,2013-03-04 21:59:00,
2013-03-04 15:14:00,72.2,28.0,29.90,West,262,24.0,26.0,19,0.00,,,0.00,613,weatherlink.com 1.10,2013-03-04 22:14:00,
2013-03-04 15:29:00,72.1,26.0,29.90,WSW,255,14.0,21.0,18,0.00,,,0.00,571,weatherlink.com 1.10,2013-03-04 22:29:00,
2013-03-04 15:44:00,72.3,25.0,29.91,West,264,15.0,21.0,17,0.00,,,0.00,499,weatherlink.com 1.10,2013-03-04 22:44:00,
2013-03-04 15:59:00,71.6,26.0,29.91,WNW,297,9.0,22.0,18,0.00,,,0.00,478,weatherlink.com 1.10,2013-03-04 22:59:00,
2013-03-04 16:14:00,71.8,27.0,29.91,West,279,15.0,22.0,19,0.00,,,0.00,429,weatherlink.com 1.10,2013-03-04 23:14:00,
2013-03-04 16:29:00,71.3,26.0,29.92,WSW,247,12.0,20.0,18,0.00,,,0.00,373,weatherlink.com 1.10,2013-03-04 23:29:00,
2013-03-04 16:44:00,70.6,25.0,29.93,West,279,9.0,18.0,18,0.00,,,0.00,304,weatherlink.com 1.10,2013-03-04 23:44:00,
2013-03-04 16:59:00,70.6,26.0,29.93,NW,322,3.0,12.0,19,0.00,,,0.00,272,weatherlink.com 1.10,2013-03-04 23:59:00,
2013-03-04 17:14:00,69.9,28.0,29.92,North,355,6.0,13.0,21,0.00,,,0.00,197,weatherlink.com 1.10,2013-03-05 00:14:00,
2013-03-04 17:29:00,68.9,31.0,29.93,NW,312,5.0,14.0,24,0.00,,,0.00,128,weatherlink.com 1.10,2013-03-05 00:29:00,
2013-03-04 17:44:00,68.5,31.0,29.93,WNW,294,9.0,12.0,25,0.00,,,0.00,77,weatherlink.com 1.10,2013-03-05 00:44:00,
2013-03-04 17:59:00,67.8,32.0,29.94,West,273,5.0,10.0,26,0.00,,,0.00,33,weatherlink.com 1.10,2013-03-05 00:59:00,
2013-03-04 18:14:00,66.8,32.0,29.94,WNW,294,6.0,8.0,27,0.00,,,0.00,14,weatherlink.com 1.10,2013-03-05 01:14:00,
2013-03-04 18:29:00,65.9,31.0,29.95,West,281,4.0,7.0,27,0.00,,,0.00,0,weatherlink.com 1.10,2013-03-05 01:29:00,
2013-03-04 18:44:00,64.8,31.0,29.96,WNW,282,2.0,5.0,28,0.00,,,0.00,0,weatherlink.com 1.10,2013-03-05 01:44:00,
2013-03-04 18:59:00,63.6,31.0,29.97,WNW,287,3.0,3.0,30,0.00,,,0.00,0,weatherlink.com 1.10,2013-03-05 01:59:00,
2013-03-04 19:14:00,62.5,32.0,29.97,NW,305,1.0,3.0,32,0.00,,,0.00,0,weatherlink.com 1.10,2013-03-05 02:14:00,
2013-03-04 19:29:00,61.9,32.0,29.98,NW,305,0.0,1.0,33,0.00,,,0.00,0,weatherlink.com 1.10,2013-03-05 02:29:00,
2013-03-04 19:44:00,59.6,32.0,29.99,NW,305,0.0,1.0,36,0.00,,,0.00,0,weatherlink.com 1.10,2013-03-05 02:44:00,
2013-03-04 19:59:00,58.8,32.0,30.00,NW,305,0.0,1.0,37,0.00,,,0.00,0,weatherlink.com 1.10,2013-03-05 02:59:00,
2013-03-04 20:14:00,57.6,33.0,30.01,WNW,293,1.0,3.0,39,0.00,,,0.00,0,weatherlink.com 1.10,2013-03-05 03:14:00,
2013-03-04 20:29:00,58.9,32.0,30.01,ENE,70,2.0,3.0,37,0.00,,,0.00,0,weatherlink.com 1.10,2013-03-05 03:29:00,
2013-03-04 20:44:00,56.9,33.0,30.02,ENE,70,2.0,4.0,40,0.00,,,0.00,0,weatherlink.com 1.10,2013-03-05 03:44:00,
2013-03-04 20:59:00,56.5,32.0,30.03,East,88,1.0,4.0,40,0.00,,,0.00,0,weatherlink.com 1.10,2013-03-05 03:59:00,
2013-03-04 21:14:00,55.6,32.0,30.04,ENE,72,5.0,6.0,41,0.00,,,0.00,0,weatherlink.com 1.10,2013-03-05 04:14:00,
2013-03-04 21:29:00,55.9,32.0,30.04,East,86,2.0,5.0,41,0.00,,,0.00,0,weatherlink.com 1.10,2013-03-05 04:29:00,
2013-03-04 21:44:00,54.6,32.0,30.05,East,86,1.0,2.0,43,0.00,,,0.00,0,weatherlink.com 1.10,2013-03-05 04:44:00,
2013-03-04 21:59:00,53.6,33.0,30.06,East,86,0.0,2.0,46,0.00,,,0.00,0,weatherlink.com 1.10,2013-03-05 04:59:00,
2013-03-04 22:14:00,52.4,32.0,30.06,East,86,1.0,2.0,47,0.00,,,0.00,0,weatherlink.com 1.10,2013-03-05 05:14:00,
2013-03-04 22:29:00,52.0,33.0,30.06,ENE,74,0.0,2.0,49,0.00,,,0.00,0,weatherlink.com 1.10,2013-03-05 05:29:00,
2013-03-04 22:44:00,51.5,33.0,30.06,ENE,74,0.0,1.0,50,0.00,,,0.00,0,weatherlink.com 1.10,2013-03-05 05:44:00,
2013-03-04 22:59:00,50.5,33.0,30.07,ENE,74,1.0,2.0,51,0.00,,,0.00,0,weatherlink.com 1.10,2013-03-05 05:59:00,
2013-03-04 23:14:00,50.4,33.0,30.07,ENE,74,1.0,3.0,52,0.00,,,0.00,0,weatherlink.com 1.10,2013-03-05 06:14:00,
2013-03-04 23:29:00,51.3,33.0,30.07,East,85,0.0,2.0,50,0.00,,,0.00,0,weatherlink.com 1.10,2013-03-05 06:29:00,
2013-03-04 23:44:00,51.8,32.0,30.07,East,82,2.0,3.0,48,0.00,,,0.00,0,weatherlink.com 1.10,2013-03-05 06:44:00,
2013-03-04 23:59:00,51.0,32.0,30.07,SE,134,5.0,6.0,49,0.00,,,0.00,0,weatherlink.com 1.10,2013-03-05 06:59:00,